Rhinelander, WI (54501)

5:22 AM CDT on July 30, 2016 (GMT -0500)
2nd Lake - Moen Chain | | Change Station

Elev 1604 ft 45.66 °N, 89.30 °W | Updated 35 seconds ago

Overcast
Overcast
59.0 °F
Feels Like 59.0 °F
N
0.0
Wind Variable Wind from North
Gusts 0.0 mph

Today
High -- | Low -- °F
--% Chance of Precip.
Yesterday
High -- | Low -- °F
Precip. -- in
Pressure 30.09 in
Visibility 9.0 miles
Clouds Overcast 6000 ft
Dew Point 54 °F
Humidity 85%
Rainfall 0.00 in
Snow Depth Not available.
5:39 AM 8:27 PM
Waning Crescent, 14% visible
METAR KRHI 300953Z AUTO 00000KT 9SM OVC060 13/12 A3010 RMK AO2 SLP187 T01330122 TSNO
Pressure 30.09 in
Visibility 9.0 miles
Clouds Overcast 6000 ft
Dew Point 54 °F
Humidity 85%
Rainfall 0.00 in
Snow Depth Not available.
5:39 AM 8:27 PM
Waning Crescent, 14% visible
METAR KRHI 300953Z AUTO 00000KT 9SM OVC060 13/12 A3010 RMK AO2 SLP187 T01330122 TSNO

10-Day Weather Forecast

Almanac

Astronomy

Jul. 30, 2016 Rise Set
Actual Time
Civil Twilight
Nautical Twilight
Astronomical Twilight
Moon
Length of Visible Light
Length of Day
Tomorrow will be .
, % of the Moon is Illuminated

Today's Extremes

State Highs State Lows

Community

WunderPhotos

Upload Photos

1,928,530 photos uploaded!

WunderBlog® & News

Nearby

Air Quality

  Air Quality AQ Index Pollutant
Not available.

Snow Depth

Station Depth Elevation

Earthquake Activity

City Distance Mag. Time & Date
Minimum magnitude displayed is 2.5.

Coastal Water Temperatures

Place Temperature

Stations

Nearby Weather Stations

Station Location Temp. Windchill Dew Point Humidity Wind Precip. Elev Updated Type
                   

Watches & Warnings

There are currently no watches in effect.